• Join FlightAware (Why Join?)
  • Login
  • US Flag 
07:40AM EDT


 

Airport Tracker/Info


-or-


 

Live Flight TrackerFlight Track Log ✈ FFT268 ✈ 24-Jul-2013 ✈ KSNA - KDEN

Flight Track Log - Related Links

Times and Time Zones

All times are in EDT time to prevent confusion due to time zone crossing. See the FFT268 flight status page for this flight to view local times or setup timezone preferences in your user account.

Time Position Orientation Groundspeed Altitude Reporting Facility
EDT Latitude Longitude Course Direction KTS MPH feet Rate Location/Type
10:23AM 33.6472 -117.8844 90° East 146 168 1,600  Level Los Angeles Center
10:24AM 33.6058 -117.8931 190° South 151 174 3,300 1,200 Climbing Los Angeles Center
10:25AM 33.5489 -117.8850 173° South 197 227 4,200 1,620 Climbing Los Angeles Center
10:27AM 33.5311 -117.8011 104° East 262 302 6,700 2,520 Climbing Los Angeles Center
10:28AM 33.5475 -117.7067 78° East 281 323 9,500 2,220 Climbing Los Angeles Center
10:29AM 33.5833 -117.2557 90° East  Level FlightAware Approximate
10:29AM 33.5636 -117.6047 79° East 297 342 11,300  Level Los Angeles Center
10:30AM 33.5844 -117.4717 79° East 334 384 14,500 2,580 Climbing Los Angeles Center
10:31AM 33.5881 -117.3553 88° East 350 403 16,700 1,740 Climbing Los Angeles Center
10:32AM 33.5939 -117.2350 87° East 358 412 18,100 1,620 Climbing Los Angeles Center
10:33AM 33.5983 -117.1086 88° East 373 429 20,100 1,740 Climbing Los Angeles Center
10:34AM 33.6025 -116.9794 88° East 384 442 21,700 1,380 Climbing Los Angeles Center
10:35AM 33.6072 -116.8417 88° East 397 457 23,000 600 Climbing Los Angeles Center
10:36AM 33.6125 -116.7072 87° East 402 463 23,000 480 Level Los Angeles Center
10:37AM 33.6158 -116.5444 89° East 405 466 24,100 1,200 Climbing Los Angeles Center
10:38AM 33.6203 -116.4036 88° East 420 483 25,500 1,080 Climbing Los Angeles Center
10:39AM 33.6247 -116.2894 87° East 425 489 26,400 1,200 Climbing Los Angeles Center
10:40AM 33.6517 -116.1158 79° East 440 506 28,100 1,260 Climbing Los Angeles Center
10:41AM 33.7206 -115.9883 57° Northeast 451 519 29,100 960 Climbing Los Angeles Center
10:42AM 33.7917 -115.8586 57° Northeast 463 533 30,100 960 Climbing Los Angeles Center
10:43AM 33.8644 -115.7236 57° Northeast 477 549 31,100 1,200 Climbing Los Angeles Center
10:44AM 33.9511 -115.5614 57° Northeast 481 554 32,600 1,200 Climbing Los Angeles Center
10:45AM 34.0236 -115.4258 57° Northeast 481 554 33,700 1,140 Climbing Los Angeles Center
10:46AM 34.0950 -115.2894 58° Northeast 482 555 35,000 1,020 Climbing Los Angeles Center
10:47AM 34.1686 -115.1550 56° Northeast 481 554 35,900 780 Climbing Los Angeles Center
10:48AM 34.2403 -115.0183 58° Northeast 481 554 36,700 840 Climbing Los Angeles Center
10:49AM 34.3136 -114.8825 57° Northeast 482 555 37,700 1,020 Climbing Los Angeles Center
10:50AM 34.3975 -114.7203 58° Northeast 477 549 38,900 600 Climbing Los Angeles Center
10:51AM 34.4678 -114.5869 57° Northeast 472 543 39,000  Climbing Los Angeles Center
10:52AM 34.5375 -114.4539 58° Northeast 469 540 39,000  Level Los Angeles Center
10:53AM 34.6058 -114.3214 58° Northeast 465 535 39,000  Level Los Angeles Center
10:54AM 34.6800 -114.1783 58° Northeast 468 539 39,000  Level Los Angeles Center
10:55AM 34.7483 -114.0447 58° Northeast 466 536 39,000  Level Los Angeles Center
10:56AM 34.8142 -113.9178 58° Northeast 465 535 39,000  Level Los Angeles Center
10:57AM 34.8958 -113.7572 58° Northeast 467 537 39,000  Level Los Angeles Center
10:59AM 34.9647 -113.6236 58° Northeast 468 539 39,000  Level Los Angeles Center
11:00AM 35.0336 -113.4883 58° Northeast 471 542 39,000  Level Los Angeles Center
11:01AM 35.1011 -113.3533 59° Northeast 471 542 39,000  Level Los Angeles Center
11:02AM 35.1731 -113.2103 58° Northeast 466 536 39,000  Level Los Angeles Center
11:03AM 35.2403 -113.0753 59° Northeast 465 535 39,000  Level Los Angeles Center
11:04AM 35.3128 -112.9297 59° Northeast 468 539 39,000  Level Los Angeles Center
11:05AM 35.3814 -112.7936 58° Northeast 470 541 39,000  Level Los Angeles Center
11:06AM 35.4506 -112.6531 59° Northeast 478 550 39,000  Level Los Angeles Center
11:07AM 35.5267 -112.4975 59° Northeast 468 539 39,000  Level Los Angeles Center
11:08AM 35.5939 -112.3625 58° Northeast 466 536 39,000  Level Los Angeles Center
11:09AM 35.6597 -112.2278 59° Northeast 465 535 39,000  Level Los Angeles Center
11:10AM 35.7261 -112.0917 59° Northeast 465 535 39,000  Level Los Angeles Center
11:11AM 35.8050 -111.9289 59° Northeast 465 535 39,000  Level Los Angeles Center
11:12AM 35.8700 -111.7919 60° Northeast 465 535 39,000  Level Los Angeles Center
11:13AM 35.9544 -111.6211 59° Northeast 467 537 39,000  Level Denver Center
11:14AM 36.0200 -111.4811 60° Northeast 470 541 39,000  Level Denver Center
11:15AM 36.0861 -111.3431 59° Northeast 470 541 39,000  Level Denver Center
11:16AM 36.1414 -111.2328 58° Northeast 468 539 39,000  Level Los Angeles Center
11:17AM 36.2175 -111.1047 54° Northeast 465 535 39,000  Level Los Angeles Center
11:18AM 36.3078 -110.9489 54° Northeast 465 535 39,000  Level Los Angeles Center
11:19AM 36.3986 -110.7947 54° Northeast 467 537 39,000  Level Denver Center
11:21AM 36.4731 -110.6650 54° Northeast 465 535 39,000  Level Denver Center
11:22AM 36.5675 -110.5133 52° Northeast 463 533 39,000  Level Denver Center
11:23AM 36.6508 -110.3914 50° Northeast 462 532 39,000  Level Denver Center
11:24AM 36.7331 -110.2678 50° Northeast 464 534 39,000  Level Denver Center
11:25AM 36.8150 -110.1433 51° Northeast 461 531 39,000  Level Denver Center
11:26AM 36.9081 -110.0047 50° Northeast 465 535 39,000  Level Denver Center
11:27AM 36.9856 -109.8875 50° Northeast 461 531 39,000  Level Denver Center
11:28AM 37.0644 -109.7678 50° Northeast 462 532 39,000  Level Denver Center
11:29AM 37.1567 -109.6286 50° Northeast 465 535 39,000  Level Denver Center
11:30AM 37.2333 -109.5061 52° Northeast 464 534 39,000  Level Denver Center
11:31AM 37.3175 -109.3569 55° Northeast 465 535 39,000  Level Denver Center
11:32AM 37.3892 -109.2294 55° Northeast 466 536 39,000  Level Denver Center
11:33AM 37.4739 -109.0806 54° Northeast 467 537 39,000  Level Denver Center
11:34AM 37.5458 -108.9531 55° Northeast 465 535 39,000  Level Denver Center
11:35AM 37.6294 -108.8028 55° Northeast 468 539 39,000  Level Denver Center
11:36AM 37.7011 -108.6733 55° Northeast 469 540 39,000  Level Denver Center
11:37AM 37.7722 -108.5447 55° Northeast 466 536 39,000  Level Denver Center
11:38AM 37.8553 -108.3972 54° Northeast 462 532 39,000  Level Denver Center
11:39AM 37.9272 -108.2656 55° Northeast 470 541 39,000  Level Denver Center
11:40AM 38.0114 -108.1133 55° Northeast 472 543 39,000  Level Denver Center
11:41AM 38.0908 -107.9656 56° Northeast 476 548 39,100  Climbing Denver Center
11:42AM 38.1617 -107.8347 55° Northeast 472 543 39,000 -60 Descending Denver Center
11:43AM 38.2442 -107.6839 55° Northeast 467 537 39,000 -240 Level Denver Center
11:44AM 38.3147 -107.5553 55° Northeast 466 536 38,600 -540 Descending Denver Center
11:45AM 38.3958 -107.4022 56° Northeast 468 539 38,000 -540 Descending Denver Center
11:46AM 38.4658 -107.2708 56° Northeast 468 539 37,600 -600 Descending Denver Center
11:47AM 38.5450 -107.1247 55° Northeast 469 540 36,800 -900 Descending Denver Center
11:48AM 38.6181 -106.9867 56° Northeast 470 541 35,800 -960 Descending Denver Center
11:49AM 38.6908 -106.8467 56° Northeast 473 544 34,900 -960 Descending Denver Center
11:51AM 38.7636 -106.7075 56° Northeast 473 544 33,900 -1,080 Descending Denver Center
11:52AM 38.8386 -106.5669 56° Northeast 478 550 32,700 -2,040 Descending Denver Center
11:53AM 38.9242 -106.4008 56° Northeast 480 552 29,800 -2,460 Descending Denver Center
11:54AM 38.9939 -106.2658 56° Northeast 475 547 27,700 -2,040 Descending Denver Center
11:55AM 39.0653 -106.1286 56° Northeast 466 536 25,600 -2,280 Descending Denver Center
11:56AM 39.1467 -105.9683 57° Northeast 447 514 23,100 -2,160 Descending Denver Center
11:57AM 39.2119 -105.8411 56° Northeast 430 495 21,200 -1,860 Descending Denver Center
11:58AM 39.2728 -105.7233 56° Northeast 400 460 19,300 -1,620 Descending Denver Center
11:59AM 39.3308 -105.6097 57° Northeast 384 442 17,900 -1,020 Descending Denver Center
12:00PM 39.3844 -105.5044 57° Northeast 358 412 17,200 -1,020 Descending Denver Center
12:01PM 39.4503 -105.3722 57° Northeast 325 374 15,700 -1,380 Descending Denver Center
12:02PM 39.5006 -105.2672 58° Northeast 320 368 14,100 -1,320 Descending Denver Center
12:03PM 39.5597 -105.1881 46° Northeast 316 364 13,000 -540 Descending Denver Center
12:04PM 39.6408 -105.1664 12° North 300 345 13,100 -420 Climbing Denver Center
12:05PM 39.7161 -105.1467 11° North 261 300 12,200 -900 Descending Denver Center
12:06PM 39.7817 -105.1297 11° North 243 280 11,300 -960 Descending Denver Center
12:07PM 39.8403 -105.1028 19° North 219 252 10,300 -1,020 Descending Denver Center
12:08PM 39.8419 -105.0286 88° East 203 234 9,300 -660 Descending Denver Center
12:09PM 39.8419 -104.9564 90° East 200 230 9,000 -720 Descending Denver Center
12:10PM 39.8417 -104.8806 90° East 196 226 7,900 -1,260 Descending Denver Center
12:11PM 39.8411 -104.8100 91° East 194 223 6,500 -1,080 Descending Denver Center
12:12PM 39.8408 -104.7458 90° East 162 186 5,700 -540 Descending Denver Center
12:13PM 39.8397 -104.7042 92° East 136 157 5,400 -300 Descending Denver Center
12:15PM 39.8617 -104.6732 North  Level Estimated
12:22PM 39.8617 -104.6732 161° South  Level Estimated
12:23PM 39.8617 -104.6732 161° South  Level Estimated